sensor_id;sensor_type;location;lat;lon;timestamp;pressure;altitude;pressure_sealevel;temperature;humidity
74905;BME280;63465;50.862;6.220;2023-04-25T00:02:20;99367.41;;;7.31;90.13
74905;BME280;63465;50.862;6.220;2023-04-25T00:04:45;99369.47;;;7.25;90.26
74905;BME280;63465;50.862;6.220;2023-04-25T00:07:11;99366.97;;;7.42;90.48
74905;BME280;63465;50.862;6.220;2023-04-25T00:09:36;99372.94;;;7.25;90.71
74905;BME280;63465;50.862;6.220;2023-04-25T00:12:02;99381.13;;;7.41;90.58
74905;BME280;63465;50.862;6.220;2023-04-25T00:14:28;99376.47;;;7.26;90.62
74905;BME280;63465;50.862;6.220;2023-04-25T00:16:54;99366.38;;;7.36;90.36
74905;BME280;63465;50.862;6.220;2023-04-25T00:19:19;99372.25;;;7.42;90.54
74905;BME280;63465;50.862;6.220;2023-04-25T00:21:45;99375.53;;;7.27;91.06
74905;BME280;63465;50.862;6.220;2023-04-25T00:24:11;99377.63;;;7.19;91.54
74905;BME280;63465;50.862;6.220;2023-04-25T00:26:36;99380.84;;;7.25;91.71
74905;BME280;63465;50.862;6.220;2023-04-25T00:29:02;99374.41;;;7.32;91.61
74905;BME280;63465;50.862;6.220;2023-04-25T00:31:27;99370.44;;;7.22;91.86
74905;BME280;63465;50.862;6.220;2023-04-25T00:33:54;99376.81;;;7.17;91.71
74905;BME280;63465;50.862;6.220;2023-04-25T00:36:19;99375.03;;;7.17;92.06
74905;BME280;63465;50.862;6.220;2023-04-25T00:38:44;99374.41;;;7.10;92.51
74905;BME280;63465;50.862;6.220;2023-04-25T00:41:10;99380.25;;;7.19;92.44
74905;BME280;63465;50.862;6.220;2023-04-25T00:43:36;99379.38;;;7.18;92.40
74905;BME280;63465;50.862;6.220;2023-04-25T00:46:02;99379.69;;;7.10;92.55
74905;BME280;63465;50.862;6.220;2023-04-25T00:48:27;99381.47;;;7.10;92.45
74905;BME280;63465;50.862;6.220;2023-04-25T00:50:55;99390.13;;;7.13;92.71
74905;BME280;63465;50.862;6.220;2023-04-25T00:53:22;99383.56;;;7.02;92.70
74905;BME280;63465;50.862;6.220;2023-04-25T00:55:48;99382.63;;;7.03;93.38
74905;BME280;63465;50.862;6.220;2023-04-25T00:58:19;99387.97;;;7.01;93.21
74905;BME280;63465;50.862;6.220;2023-04-25T01:00:46;99384.22;;;6.85;93.50
74905;BME280;63465;50.862;6.220;2023-04-25T01:03:13;99385.63;;;6.93;93.40
74905;BME280;63465;50.862;6.220;2023-04-25T01:05:40;99387.25;;;6.97;93.59
74905;BME280;63465;50.862;6.220;2023-04-25T01:08:06;99389.94;;;6.96;94.00
74905;BME280;63465;50.862;6.220;2023-04-25T01:10:32;99384.19;;;6.86;93.75
74905;BME280;63465;50.862;6.220;2023-04-25T01:12:57;99385.75;;;6.90;94.09
74905;BME280;63465;50.862;6.220;2023-04-25T01:15:22;99390.13;;;6.91;93.74
74905;BME280;63465;50.862;6.220;2023-04-25T01:17:48;99385.69;;;6.70;94.19
74905;BME280;63465;50.862;6.220;2023-04-25T01:20:15;99380.78;;;6.83;94.24
74905;BME280;63465;50.862;6.220;2023-04-25T01:22:41;99389.09;;;6.72;94.05
74905;BME280;63465;50.862;6.220;2023-04-25T01:25:07;99385.38;;;6.77;93.95
74905;BME280;63465;50.862;6.220;2023-04-25T01:27:33;99390.66;;;6.77;93.88
74905;BME280;63465;50.862;6.220;2023-04-25T01:29:59;99386.69;;;6.89;93.73
74905;BME280;63465;50.862;6.220;2023-04-25T01:32:25;99389.22;;;6.92;93.52
74905;BME280;63465;50.862;6.220;2023-04-25T01:38:13;99396.91;;;6.75;93.88
74905;BME280;63465;50.862;6.220;2023-04-25T01:40:39;99397.13;;;6.92;93.42
74905;BME280;63465;50.862;6.220;2023-04-25T01:43:05;99391.91;;;6.91;93.75
74905;BME280;63465;50.862;6.220;2023-04-25T01:45:31;99396.41;;;6.87;93.86
74905;BME280;63465;50.862;6.220;2023-04-25T01:47:56;99399.25;;;6.83;94.28
74905;BME280;63465;50.862;6.220;2023-04-25T01:50:24;99407.50;;;6.73;93.91
74905;BME280;63465;50.862;6.220;2023-04-25T01:52:50;99401.44;;;6.71;94.00
74905;BME280;63465;50.862;6.220;2023-04-25T01:55:16;99401.63;;;6.89;94.38
74905;BME280;63465;50.862;6.220;2023-04-25T01:57:41;99414.09;;;6.85;94.10
74905;BME280;63465;50.862;6.220;2023-04-25T02:00:07;99404.56;;;6.81;94.00
74905;BME280;63465;50.862;6.220;2023-04-25T02:02:34;99413.66;;;6.74;94.60
74905;BME280;63465;50.862;6.220;2023-04-25T02:04:59;99412.59;;;6.78;94.97
74905;BME280;63465;50.862;6.220;2023-04-25T02:07:25;99410.50;;;6.88;94.56
74905;BME280;63465;50.862;6.220;2023-04-25T02:09:51;99410.66;;;6.83;94.72
74905;BME280;63465;50.862;6.220;2023-04-25T02:12:16;99406.47;;;6.77;94.81
74905;BME280;63465;50.862;6.220;2023-04-25T02:14:41;99409.78;;;6.83;95.23
74905;BME280;63465;50.862;6.220;2023-04-25T02:17:07;99404.50;;;6.83;95.15
74905;BME280;63465;50.862;6.220;2023-04-25T02:19:32;99405.91;;;6.69;95.29
74905;BME280;63465;50.862;6.220;2023-04-25T02:21:57;99411.75;;;6.77;95.41
74905;BME280;63465;50.862;6.220;2023-04-25T02:24:23;99420.34;;;6.83;95.76
74905;BME280;63465;50.862;6.220;2023-04-25T02:26:48;99408.44;;;6.72;95.56
74905;BME280;63465;50.862;6.220;2023-04-25T02:29:14;99411.44;;;6.63;95.72
74905;BME280;63465;50.862;6.220;2023-04-25T02:31:40;99411.63;;;6.57;96.55
74905;BME280;63465;50.862;6.220;2023-04-25T02:34:05;99409.59;;;6.65;96.72
74905;BME280;63465;50.862;6.220;2023-04-25T02:36:30;99401.13;;;6.55;96.85
74905;BME280;63465;50.862;6.220;2023-04-25T02:38:59;99406.59;;;6.51;97.23
74905;BME280;63465;50.862;6.220;2023-04-25T02:41:25;99403.63;;;6.60;96.82
74905;BME280;63465;50.862;6.220;2023-04-25T02:43:50;99410.50;;;6.64;97.42
74905;BME280;63465;50.862;6.220;2023-04-25T02:46:15;99410.72;;;6.58;97.28
74905;BME280;63465;50.862;6.220;2023-04-25T02:48:41;99404.00;;;6.49;97.27
74905;BME280;63465;50.862;6.220;2023-04-25T02:51:06;99399.16;;;6.62;97.75
74905;BME280;63465;50.862;6.220;2023-04-25T02:53:31;99409.66;;;6.38;98.89
74905;BME280;63465;50.862;6.220;2023-04-25T02:55:57;99412.69;;;6.53;98.14
74905;BME280;63465;50.862;6.220;2023-04-25T02:58:23;99408.13;;;6.56;97.90
74905;BME280;63465;50.862;6.220;2023-04-25T03:00:48;99413.75;;;6.47;98.44
74905;BME280;63465;50.862;6.220;2023-04-25T03:03:14;99415.53;;;6.47;98.64
74905;BME280;63465;50.862;6.220;2023-04-25T03:05:42;99407.75;;;6.43;98.50
74905;BME280;63465;50.862;6.220;2023-04-25T03:08:07;99410.38;;;6.43;98.45
74905;BME280;63465;50.862;6.220;2023-04-25T03:10:33;99415.06;;;6.35;98.43
74905;BME280;63465;50.862;6.220;2023-04-25T03:12:58;99424.38;;;6.20;99.13
74905;BME280;63465;50.862;6.220;2023-04-25T03:15:23;99418.78;;;6.30;98.74
74905;BME280;63465;50.862;6.220;2023-04-25T03:17:49;99421.03;;;6.40;98.54
74905;BME280;63465;50.862;6.220;2023-04-25T03:20:14;99426.38;;;6.39;98.43
74905;BME280;63465;50.862;6.220;2023-04-25T03:22:39;99428.16;;;6.37;97.91
74905;BME280;63465;50.862;6.220;2023-04-25T03:25:05;99430.97;;;6.32;98.40
74905;BME280;63465;50.862;6.220;2023-04-25T03:27:30;99428.44;;;6.29;98.40
74905;BME280;63465;50.862;6.220;2023-04-25T03:29:56;99421.94;;;6.39;97.90
74905;BME280;63465;50.862;6.220;2023-04-25T03:32:21;99419.19;;;6.42;97.85
74905;BME280;63465;50.862;6.220;2023-04-25T03:34:46;99425.75;;;6.31;97.93
74905;BME280;63465;50.862;6.220;2023-04-25T03:37:11;99420.25;;;6.37;98.05
74905;BME280;63465;50.862;6.220;2023-04-25T03:39:37;99421.09;;;6.14;97.92
74905;BME280;63465;50.862;6.220;2023-04-25T03:42:03;99430.50;;;6.21;98.15
74905;BME280;63465;50.862;6.220;2023-04-25T03:44:29;99443.00;;;6.16;98.18
74905;BME280;63465;50.862;6.220;2023-04-25T03:46:54;99436.22;;;6.09;98.49
74905;BME280;63465;50.862;6.220;2023-04-25T03:49:19;99435.88;;;6.18;98.51
74905;BME280;63465;50.862;6.220;2023-04-25T03:51:45;99436.78;;;6.17;98.45
74905;BME280;63465;50.862;6.220;2023-04-25T03:54:10;99435.78;;;6.21;98.45
74905;BME280;63465;50.862;6.220;2023-04-25T03:56:35;99432.63;;;6.11;98.68
74905;BME280;63465;50.862;6.220;2023-04-25T03:59:01;99432.34;;;6.19;98.46
74905;BME280;63465;50.862;6.220;2023-04-25T04:01:26;99434.25;;;6.14;98.45
74905;BME280;63465;50.862;6.220;2023-04-25T04:03:51;99435.41;;;6.06;98.38
74905;BME280;63465;50.862;6.220;2023-04-25T04:06:17;99437.16;;;6.06;98.70
74905;BME280;63465;50.862;6.220;2023-04-25T04:08:42;99440.91;;;6.00;98.36
74905;BME280;63465;50.862;6.220;2023-04-25T04:11:07;99441.78;;;6.24;98.57
74905;BME280;63465;50.862;6.220;2023-04-25T04:13:33;99443.91;;;6.15;98.16
74905;BME280;63465;50.862;6.220;2023-04-25T04:15:58;99445.78;;;6.11;97.75
74905;BME280;63465;50.862;6.220;2023-04-25T04:18:23;99439.47;;;6.15;97.55
74905;BME280;63465;50.862;6.220;2023-04-25T04:20:49;99445.31;;;6.25;97.99
74905;BME280;63465;50.862;6.220;2023-04-25T04:23:14;99449.59;;;6.02;97.82
74905;BME280;63465;50.862;6.220;2023-04-25T04:25:40;99457.00;;;6.16;97.83
74905;BME280;63465;50.862;6.220;2023-04-25T04:28:06;99452.31;;;6.24;97.57
74905;BME280;63465;50.862;6.220;2023-04-25T04:30:31;99455.94;;;6.22;97.84
74905;BME280;63465;50.862;6.220;2023-04-25T04:32:56;99455.28;;;6.15;98.01
74905;BME280;63465;50.862;6.220;2023-04-25T04:35:23;99462.19;;;6.19;98.24
74905;BME280;63465;50.862;6.220;2023-04-25T04:37:49;99462.59;;;6.07;97.97
74905;BME280;63465;50.862;6.220;2023-04-25T04:40:14;99463.81;;;6.23;97.89
74905;BME280;63465;50.862;6.220;2023-04-25T04:42:43;99464.91;;;6.16;97.91
74905;BME280;63465;50.862;6.220;2023-04-25T04:45:10;99472.72;;;6.19;97.98
74905;BME280;63465;50.862;6.220;2023-04-25T04:47:36;99468.28;;;6.20;98.30
74905;BME280;63465;50.862;6.220;2023-04-25T04:50:02;99478.94;;;6.17;98.69
74905;BME280;63465;50.862;6.220;2023-04-25T04:52:28;99476.16;;;6.21;98.31
74905;BME280;63465;50.862;6.220;2023-04-25T04:54:53;99475.66;;;6.10;98.73
74905;BME280;63465;50.862;6.220;2023-04-25T04:57:18;99484.06;;;6.21;98.31
74905;BME280;63465;50.862;6.220;2023-04-25T04:59:44;99483.78;;;6.29;98.39
74905;BME280;63465;50.862;6.220;2023-04-25T05:02:09;99484.22;;;6.42;98.38
74905;BME280;63465;50.862;6.220;2023-04-25T05:04:35;99480.47;;;6.24;99.28
74905;BME280;63465;50.862;6.220;2023-04-25T05:07:00;99491.22;;;6.18;99.00
74905;BME280;63465;50.862;6.220;2023-04-25T05:09:26;99490.00;;;6.28;99.04
74905;BME280;63465;50.862;6.220;2023-04-25T05:11:51;99501.28;;;6.32;98.84
74905;BME280;63465;50.862;6.220;2023-04-25T05:14:17;99502.28;;;6.28;99.24
74905;BME280;63465;50.862;6.220;2023-04-25T05:16:43;99511.44;;;6.42;99.06
74905;BME280;63465;50.862;6.220;2023-04-25T05:19:08;99510.69;;;6.39;99.29
74905;BME280;63465;50.862;6.220;2023-04-25T05:21:33;99518.50;;;6.42;98.94
74905;BME280;63465;50.862;6.220;2023-04-25T05:23:59;99516.06;;;6.36;98.94
74905;BME280;63465;50.862;6.220;2023-04-25T05:26:25;99522.03;;;6.41;98.45
74905;BME280;63465;50.862;6.220;2023-04-25T05:28:50;99522.78;;;6.45;98.83
74905;BME280;63465;50.862;6.220;2023-04-25T05:31:16;99522.31;;;6.33;98.65
74905;BME280;63465;50.862;6.220;2023-04-25T05:33:41;99523.00;;;6.38;98.41
74905;BME280;63465;50.862;6.220;2023-04-25T05:36:07;99524.50;;;6.46;97.75
74905;BME280;63465;50.862;6.220;2023-04-25T05:38:32;99525.69;;;6.37;98.24
74905;BME280;63465;50.862;6.220;2023-04-25T05:40:58;99531.06;;;6.34;98.23
74905;BME280;63465;50.862;6.220;2023-04-25T05:43:23;99532.25;;;6.50;98.04
74905;BME280;63465;50.862;6.220;2023-04-25T05:45:48;99526.44;;;6.40;97.93
74905;BME280;63465;50.862;6.220;2023-04-25T05:48:14;99537.69;;;6.46;97.96
74905;BME280;63465;50.862;6.220;2023-04-25T05:50:39;99538.47;;;6.48;97.35
74905;BME280;63465;50.862;6.220;2023-04-25T05:53:04;99538.47;;;6.48;97.74
74905;BME280;63465;50.862;6.220;2023-04-25T05:55:31;99543.59;;;6.52;96.81
74905;BME280;63465;50.862;6.220;2023-04-25T05:57:56;99544.16;;;6.62;96.92
74905;BME280;63465;50.862;6.220;2023-04-25T06:00:21;99543.81;;;6.71;97.04
74905;BME280;63465;50.862;6.220;2023-04-25T06:02:48;99555.44;;;6.66;96.81
74905;BME280;63465;50.862;6.220;2023-04-25T06:05:13;99553.91;;;6.60;96.42
74905;BME280;63465;50.862;6.220;2023-04-25T06:07:38;99553.81;;;6.87;96.26
74905;BME280;63465;50.862;6.220;2023-04-25T06:10:04;99551.91;;;6.67;95.57
74905;BME280;63465;50.862;6.220;2023-04-25T06:12:31;99544.56;;;7.00;94.22
74905;BME280;63465;50.862;6.220;2023-04-25T06:14:57;99552.97;;;6.86;93.85
74905;BME280;63465;50.862;6.220;2023-04-25T06:17:23;99556.13;;;6.96;94.84
74905;BME280;63465;50.862;6.220;2023-04-25T06:19:48;99558.19;;;7.11;94.60
74905;BME280;63465;50.862;6.220;2023-04-25T06:22:13;99569.44;;;7.17;93.61
74905;BME280;63465;50.862;6.220;2023-04-25T06:24:38;99570.47;;;7.12;92.02
74905;BME280;63465;50.862;6.220;2023-04-25T06:27:04;99570.59;;;7.09;91.01
74905;BME280;63465;50.862;6.220;2023-04-25T06:29:30;99574.72;;;7.17;90.72
74905;BME280;63465;50.862;6.220;2023-04-25T06:31:55;99575.66;;;7.16;91.30
74905;BME280;63465;50.862;6.220;2023-04-25T06:34:20;99574.44;;;7.24;91.04
74905;BME280;63465;50.862;6.220;2023-04-25T06:36:46;99572.78;;;7.22;89.58
74905;BME280;63465;50.862;6.220;2023-04-25T06:39:11;99572.19;;;7.13;90.32
74905;BME280;63465;50.862;6.220;2023-04-25T06:41:36;99581.03;;;7.12;90.11
74905;BME280;63465;50.862;6.220;2023-04-25T06:44:02;99570.22;;;7.42;86.20
74905;BME280;63465;50.862;6.220;2023-04-25T06:46:27;99584.94;;;7.49;87.33
74905;BME280;63465;50.862;6.220;2023-04-25T06:48:52;99587.63;;;7.48;86.52
74905;BME280;63465;50.862;6.220;2023-04-25T06:51:18;99585.50;;;7.34;85.93
74905;BME280;63465;50.862;6.220;2023-04-25T06:53:43;99586.13;;;7.41;86.01
74905;BME280;63465;50.862;6.220;2023-04-25T06:56:08;99583.53;;;7.63;85.81
74905;BME280;63465;50.862;6.220;2023-04-25T06:58:34;99592.97;;;7.92;86.12
74905;BME280;63465;50.862;6.220;2023-04-25T07:00:59;99589.19;;;7.76;86.63
74905;BME280;63465;50.862;6.220;2023-04-25T07:03:24;99594.53;;;7.74;85.85
74905;BME280;63465;50.862;6.220;2023-04-25T07:05:50;99597.16;;;7.28;86.37
74905;BME280;63465;50.862;6.220;2023-04-25T07:08:16;99595.94;;;7.61;86.89
74905;BME280;63465;50.862;6.220;2023-04-25T07:10:41;99599.44;;;7.38;86.73
74905;BME280;63465;50.862;6.220;2023-04-25T07:13:06;99602.81;;;7.18;87.40
74905;BME280;63465;50.862;6.220;2023-04-25T07:15:32;99600.53;;;7.08;87.99
74905;BME280;63465;50.862;6.220;2023-04-25T07:17:57;99603.00;;;7.13;88.25
74905;BME280;63465;50.862;6.220;2023-04-25T07:20:23;99604.06;;;7.07;87.39
74905;BME280;63465;50.862;6.220;2023-04-25T07:22:48;99605.91;;;7.30;88.24
74905;BME280;63465;50.862;6.220;2023-04-25T07:25:15;99609.09;;;7.39;87.00
74905;BME280;63465;50.862;6.220;2023-04-25T07:27:40;99612.59;;;7.39;87.96
74905;BME280;63465;50.862;6.220;2023-04-25T07:30:06;99613.41;;;7.41;86.84
74905;BME280;63465;50.862;6.220;2023-04-25T07:32:31;99622.59;;;7.31;86.45
74905;BME280;63465;50.862;6.220;2023-04-25T07:34:57;99625.16;;;7.32;85.87
74905;BME280;63465;50.862;6.220;2023-04-25T07:37:22;99620.38;;;7.42;85.22
74905;BME280;63465;50.862;6.220;2023-04-25T07:39:47;99623.50;;;7.30;85.33
74905;BME280;63465;50.862;6.220;2023-04-25T07:42:13;99622.38;;;7.59;84.38
74905;BME280;63465;50.862;6.220;2023-04-25T07:44:38;99631.56;;;7.73;83.08
74905;BME280;63465;50.862;6.220;2023-04-25T07:47:06;99633.63;;;7.88;82.38
74905;BME280;63465;50.862;6.220;2023-04-25T07:49:38;99629.75;;;8.19;81.88
74905;BME280;63465;50.862;6.220;2023-04-25T07:52:04;99644.34;;;8.07;80.73
74905;BME280;63465;50.862;6.220;2023-04-25T07:54:31;99641.50;;;7.90;81.52
74905;BME280;63465;50.862;6.220;2023-04-25T07:56:57;99638.72;;;7.93;80.48
74905;BME280;63465;50.862;6.220;2023-04-25T07:59:23;99651.09;;;7.92;79.24
74905;BME280;63465;50.862;6.220;2023-04-25T08:01:48;99652.88;;;8.14;78.53
74905;BME280;63465;50.862;6.220;2023-04-25T08:04:13;99654.69;;;8.13;75.74
74905;BME280;63465;50.862;6.220;2023-04-25T08:06:39;99662.47;;;8.38;75.90
74905;BME280;63465;50.862;6.220;2023-04-25T08:09:05;99662.91;;;8.50;73.04
74905;BME280;63465;50.862;6.220;2023-04-25T08:11:31;99660.44;;;8.45;71.98
74905;BME280;63465;50.862;6.220;2023-04-25T08:13:56;99667.66;;;8.19;74.19
74905;BME280;63465;50.862;6.220;2023-04-25T08:16:21;99678.91;;;8.47;72.92
74905;BME280;63465;50.862;6.220;2023-04-25T08:18:47;99677.28;;;8.65;75.95
74905;BME280;63465;50.862;6.220;2023-04-25T08:21:12;99678.19;;;8.65;73.57
74905;BME280;63465;50.862;6.220;2023-04-25T08:23:38;99686.19;;;8.84;69.68
74905;BME280;63465;50.862;6.220;2023-04-25T08:26:04;99688.78;;;8.86;70.32
74905;BME280;63465;50.862;6.220;2023-04-25T08:28:30;99690.44;;;8.88;70.97
74905;BME280;63465;50.862;6.220;2023-04-25T08:30:56;99691.88;;;8.96;70.15
74905;BME280;63465;50.862;6.220;2023-04-25T08:33:21;99693.59;;;8.54;70.60
74905;BME280;63465;50.862;6.220;2023-04-25T08:35:46;99696.63;;;8.67;72.47
74905;BME280;63465;50.862;6.220;2023-04-25T08:38:12;99708.38;;;8.60;71.95
74905;BME280;63465;50.862;6.220;2023-04-25T08:40:38;99696.63;;;8.67;72.46
74905;BME280;63465;50.862;6.220;2023-04-25T08:43:05;99697.59;;;8.64;71.26
74905;BME280;63465;50.862;6.220;2023-04-25T08:45:39;99703.38;;;8.74;70.21
74905;BME280;63465;50.862;6.220;2023-04-25T08:48:15;99712.13;;;9.17;69.41
74905;BME280;63465;50.862;6.220;2023-04-25T08:50:45;99712.81;;;9.22;69.95
74905;BME280;63465;50.862;6.220;2023-04-25T08:53:16;99711.22;;;9.39;65.54
74905;BME280;63465;50.862;6.220;2023-04-25T08:55:44;99712.72;;;9.44;63.39
74905;BME280;63465;50.862;6.220;2023-04-25T08:58:10;99716.34;;;9.62;62.73
74905;BME280;63465;50.862;6.220;2023-04-25T09:00:36;99714.59;;;10.20;63.99
74905;BME280;63465;50.862;6.220;2023-04-25T09:03:03;99734.69;;;9.86;67.34
74905;BME280;63465;50.862;6.220;2023-04-25T09:05:28;99727.38;;;9.33;67.81
74905;BME280;63465;50.862;6.220;2023-04-25T09:07:54;99733.84;;;9.46;67.38
74905;BME280;63465;50.862;6.220;2023-04-25T09:10:19;99739.13;;;9.05;66.25
74905;BME280;63465;50.862;6.220;2023-04-25T09:12:44;99740.41;;;9.17;68.21
74905;BME280;63465;50.862;6.220;2023-04-25T09:15:18;99739.91;;;8.86;68.94
74905;BME280;63465;50.862;6.220;2023-04-25T09:17:44;99745.69;;;8.96;67.63
74905;BME280;63465;50.862;6.220;2023-04-25T09:20:14;99750.59;;;8.83;67.76
74905;BME280;63465;50.862;6.220;2023-04-25T09:22:40;99750.66;;;8.82;67.61
74905;BME280;63465;50.862;6.220;2023-04-25T09:25:10;99757.06;;;8.54;68.33
74905;BME280;63465;50.862;6.220;2023-04-25T09:27:36;99764.28;;;8.50;67.59
74905;BME280;63465;50.862;6.220;2023-04-25T09:30:02;99760.22;;;8.40;69.73
74905;BME280;63465;50.862;6.220;2023-04-25T09:32:28;99763.66;;;8.44;70.87
74905;BME280;63465;50.862;6.220;2023-04-25T09:34:57;99769.81;;;8.44;71.59
74905;BME280;63465;50.862;6.220;2023-04-25T09:37:27;99765.78;;;8.57;71.23
74905;BME280;63465;50.862;6.220;2023-04-25T09:40:00;99771.91;;;8.58;69.11
74905;BME280;63465;50.862;6.220;2023-04-25T09:42:28;99774.13;;;8.69;69.17
74905;BME280;63465;50.862;6.220;2023-04-25T09:44:56;99768.75;;;8.48;70.13
74905;BME280;63465;50.862;6.220;2023-04-25T09:47:26;99784.66;;;8.70;70.98
74905;BME280;63465;50.862;6.220;2023-04-25T09:49:54;99790.84;;;8.69;70.36
74905;BME280;63465;50.862;6.220;2023-04-25T09:52:24;99790.72;;;8.72;71.75
74905;BME280;63465;50.862;6.220;2023-04-25T09:54:50;99793.56;;;8.90;71.19
74905;BME280;63465;50.862;6.220;2023-04-25T09:57:20;99790.50;;;8.56;70.57
74905;BME280;63465;50.862;6.220;2023-04-25T09:59:52;99792.00;;;9.06;70.07
74905;BME280;63465;50.862;6.220;2023-04-25T10:02:21;99799.34;;;9.22;67.81
74905;BME280;63465;50.862;6.220;2023-04-25T10:04:48;99809.28;;;9.58;69.93
74905;BME280;63465;50.862;6.220;2023-04-25T10:07:16;99805.34;;;9.46;64.75
74905;BME280;63465;50.862;6.220;2023-04-25T10:09:43;99797.22;;;9.51;62.94
74905;BME280;63465;50.862;6.220;2023-04-25T10:12:10;99811.03;;;9.98;65.03
74905;BME280;63465;50.862;6.220;2023-04-25T10:14:36;99806.69;;;9.36;64.87
74905;BME280;63465;50.862;6.220;2023-04-25T10:17:02;99810.25;;;10.36;61.81
74905;BME280;63465;50.862;6.220;2023-04-25T10:19:28;99811.03;;;10.38;60.20
74905;BME280;63465;50.862;6.220;2023-04-25T10:22:17;99805.53;;;10.98;58.48
74905;BME280;63465;50.862;6.220;2023-04-25T10:24:43;99805.00;;;11.09;56.89
74905;BME280;63465;50.862;6.220;2023-04-25T10:27:12;99798.97;;;11.05;57.09
74905;BME280;63465;50.862;6.220;2023-04-25T10:29:38;99799.84;;;10.50;60.99
74905;BME280;63465;50.862;6.220;2023-04-25T10:32:04;99799.66;;;10.55;62.03
74905;BME280;63465;50.862;6.220;2023-04-25T10:34:49;99794.75;;;10.65;59.49
74905;BME280;63465;50.862;6.220;2023-04-25T10:37:15;99798.44;;;11.16;62.37
74905;BME280;63465;50.862;6.220;2023-04-25T10:39:41;99811.97;;;10.37;61.44
74905;BME280;63465;50.862;6.220;2023-04-25T10:42:07;99802.69;;;10.08;63.81
74905;BME280;63465;50.862;6.220;2023-04-25T10:44:33;99796.91;;;10.38;63.39
74905;BME280;63465;50.862;6.220;2023-04-25T10:47:00;99795.75;;;10.81;61.58
74905;BME280;63465;50.862;6.220;2023-04-25T10:49:42;99795.44;;;11.24;57.09
74905;BME280;63465;50.862;6.220;2023-04-25T10:54:47;99794.34;;;11.79;55.39
74905;BME280;63465;50.862;6.220;2023-04-25T10:57:44;99798.56;;;10.96;58.81
74905;BME280;63465;50.862;6.220;2023-04-25T11:00:19;99800.31;;;10.78;57.33
74905;BME280;63465;50.862;6.220;2023-04-25T11:02:57;99804.38;;;10.67;57.15
74905;BME280;63465;50.862;6.220;2023-04-25T11:05:30;99797.69;;;10.40;57.42
74905;BME280;63465;50.862;6.220;2023-04-25T11:07:57;99807.84;;;9.90;58.82
74905;BME280;63465;50.862;6.220;2023-04-25T11:10:27;99810.00;;;9.82;59.38
74905;BME280;63465;50.862;6.220;2023-04-25T11:12:53;99806.81;;;9.53;62.35
74905;BME280;63465;50.862;6.220;2023-04-25T11:15:18;99806.72;;;9.14;64.10
74905;BME280;63465;50.862;6.220;2023-04-25T11:17:43;99813.19;;;9.06;65.43
74905;BME280;63465;50.862;6.220;2023-04-25T11:20:11;99819.41;;;9.05;66.30
74905;BME280;63465;50.862;6.220;2023-04-25T11:22:39;99812.75;;;8.95;65.73
74905;BME280;63465;50.862;6.220;2023-04-25T11:25:09;99825.19;;;9.15;65.32
74905;BME280;63465;50.862;6.220;2023-04-25T11:27:37;99827.91;;;9.14;64.02
74905;BME280;63465;50.862;6.220;2023-04-25T11:30:14;99821.19;;;9.05;63.88
74905;BME280;63465;50.862;6.220;2023-04-25T11:32:43;99825.88;;;8.98;63.45
74905;BME280;63465;50.862;6.220;2023-04-25T11:35:09;99824.41;;;9.13;64.22
74905;BME280;63465;50.862;6.220;2023-04-25T11:37:35;99825.63;;;9.26;63.49
74905;BME280;63465;50.862;6.220;2023-04-25T11:40:02;99823.44;;;9.14;63.90
74905;BME280;63465;50.862;6.220;2023-04-25T11:42:28;99826.94;;;9.37;65.19
74905;BME280;63465;50.862;6.220;2023-04-25T11:44:54;99834.66;;;9.21;63.20
74905;BME280;63465;50.862;6.220;2023-04-25T11:47:19;99828.28;;;9.47;62.78
74905;BME280;63465;50.862;6.220;2023-04-25T11:49:45;99832.13;;;9.60;61.85
74905;BME280;63465;50.862;6.220;2023-04-25T11:52:10;99827.38;;;9.48;60.30
74905;BME280;63465;50.862;6.220;2023-04-25T11:54:36;99825.34;;;9.74;59.67
74905;BME280;63465;50.862;6.220;2023-04-25T11:57:02;99835.31;;;9.69;59.99
74905;BME280;63465;50.862;6.220;2023-04-25T11:59:28;99837.00;;;10.11;60.39
74905;BME280;63465;50.862;6.220;2023-04-25T12:01:53;99834.03;;;9.98;60.54
74905;BME280;63465;50.862;6.220;2023-04-25T12:04:23;99839.03;;;10.25;60.87
74905;BME280;63465;50.862;6.220;2023-04-25T12:06:51;99830.69;;;10.13;58.82
74905;BME280;63465;50.862;6.220;2023-04-25T12:09:19;99837.50;;;10.19;55.57
74905;BME280;63465;50.862;6.220;2023-04-25T12:11:53;99835.56;;;10.23;56.00
74905;BME280;63465;50.862;6.220;2023-04-25T12:14:26;99836.41;;;10.04;55.30
74905;BME280;63465;50.862;6.220;2023-04-25T12:16:55;99837.06;;;10.49;54.52
74905;BME280;63465;50.862;6.220;2023-04-25T12:19:22;99836.81;;;10.92;52.66
74905;BME280;63465;50.862;6.220;2023-04-25T12:21:48;99841.88;;;10.79;52.42
74905;BME280;63465;50.862;6.220;2023-04-25T12:24:24;99836.13;;;10.50;52.44
74905;BME280;63465;50.862;6.220;2023-04-25T12:27:03;99838.28;;;11.16;51.29
74905;BME280;63465;50.862;6.220;2023-04-25T12:29:31;99837.91;;;11.59;51.86
74905;BME280;63465;50.862;6.220;2023-04-25T12:31:58;99840.81;;;12.07;51.57
74905;BME280;63465;50.862;6.220;2023-04-25T12:34:23;99827.06;;;11.64;51.20
74905;BME280;63465;50.862;6.220;2023-04-25T12:36:50;99838.53;;;11.29;51.36
74905;BME280;63465;50.862;6.220;2023-04-25T12:39:20;99836.22;;;11.58;51.86
74905;BME280;63465;50.862;6.220;2023-04-25T12:41:47;99845.00;;;11.23;54.87
74905;BME280;63465;50.862;6.220;2023-04-25T12:44:13;99843.16;;;10.70;57.09
74905;BME280;63465;50.862;6.220;2023-04-25T12:46:39;99852.50;;;10.20;56.73
74905;BME280;63465;50.862;6.220;2023-04-25T12:49:06;99850.41;;;10.08;59.30
74905;BME280;63465;50.862;6.220;2023-04-25T12:51:33;99855.91;;;9.82;60.62
74905;BME280;63465;50.862;6.220;2023-04-25T12:53:59;99858.50;;;9.84;59.92
74905;BME280;63465;50.862;6.220;2023-04-25T12:56:26;99855.28;;;9.55;59.03
74905;BME280;63465;50.862;6.220;2023-04-25T12:58:51;99850.88;;;9.76;58.41
74905;BME280;63465;50.862;6.220;2023-04-25T13:01:17;99855.97;;;9.81;56.85
74905;BME280;63465;50.862;6.220;2023-04-25T13:03:42;99862.91;;;10.25;56.45
74905;BME280;63465;50.862;6.220;2023-04-25T13:06:08;99852.50;;;10.20;57.01
74905;BME280;63465;50.862;6.220;2023-04-25T13:08:33;99854.56;;;10.53;55.54
74905;BME280;63465;50.862;6.220;2023-04-25T13:11:00;99854.66;;;11.61;54.96
74905;BME280;63465;50.862;6.220;2023-04-25T13:13:25;99852.38;;;10.99;54.93